sensor_id;sensor_type;location;lat;lon;timestamp;P1;durP1;ratioP1;P2;durP2;ratioP2
23586;SDS011;11971;51.148;4.104;2022-09-09T00:00:25;9.02;;;3.60;;
23586;SDS011;11971;51.148;4.104;2022-09-09T00:02:55;11.00;;;3.95;;
23586;SDS011;11971;51.148;4.104;2022-09-09T00:05:29;12.45;;;4.10;;
23586;SDS011;11971;51.148;4.104;2022-09-09T00:07:58;17.83;;;4.70;;
23586;SDS011;11971;51.148;4.104;2022-09-09T00:10:27;10.40;;;4.20;;
23586;SDS011;11971;51.148;4.104;2022-09-09T00:12:59;13.40;;;4.38;;
23586;SDS011;11971;51.148;4.104;2022-09-09T00:15:29;13.27;;;4.40;;
23586;SDS011;11971;51.148;4.104;2022-09-09T00:18:00;12.80;;;4.57;;
23586;SDS011;11971;51.148;4.104;2022-09-09T00:20:32;14.45;;;4.28;;
23586;SDS011;11971;51.148;4.104;2022-09-09T00:23:00;13.27;;;4.47;;
23586;SDS011;11971;51.148;4.104;2022-09-09T00:25:32;11.90;;;4.72;;
23586;SDS011;11971;51.148;4.104;2022-09-09T00:28:04;12.00;;;4.15;;
23586;SDS011;11971;51.148;4.104;2022-09-09T00:30:37;9.20;;;3.80;;
23586;SDS011;11971;51.148;4.104;2022-09-09T00:33:09;10.63;;;3.38;;
23586;SDS011;11971;51.148;4.104;2022-09-09T00:36:11;11.10;;;3.57;;
23586;SDS011;11971;51.148;4.104;2022-09-09T00:38:42;12.47;;;3.80;;
23586;SDS011;11971;51.148;4.104;2022-09-09T00:41:17;10.07;;;3.50;;
23586;SDS011;11971;51.148;4.104;2022-09-09T00:44:25;11.02;;;3.20;;
23586;SDS011;11971;51.148;4.104;2022-09-09T00:46:56;10.02;;;3.00;;
23586;SDS011;11971;51.148;4.104;2022-09-09T00:49:35;7.30;;;3.00;;
23586;SDS011;11971;51.148;4.104;2022-09-09T00:52:17;8.73;;;3.35;;
23586;SDS011;11971;51.148;4.104;2022-09-09T00:54:48;11.23;;;3.40;;
23586;SDS011;11971;51.148;4.104;2022-09-09T00:57:22;12.30;;;3.55;;
23586;SDS011;11971;51.148;4.104;2022-09-09T00:59:55;10.55;;;3.75;;
23586;SDS011;11971;51.148;4.104;2022-09-09T01:02:27;10.82;;;3.50;;
23586;SDS011;11971;51.148;4.104;2022-09-09T01:05:00;13.93;;;3.70;;
23586;SDS011;11971;51.148;4.104;2022-09-09T01:07:32;8.40;;;3.55;;
23586;SDS011;11971;51.148;4.104;2022-09-09T01:10:03;15.02;;;3.60;;
23586;SDS011;11971;51.148;4.104;2022-09-09T01:12:35;12.57;;;3.42;;
23586;SDS011;11971;51.148;4.104;2022-09-09T01:15:12;12.15;;;3.60;;
23586;SDS011;11971;51.148;4.104;2022-09-09T01:17:58;14.73;;;4.03;;
23586;SDS011;11971;51.148;4.104;2022-09-09T01:20:28;10.23;;;3.42;;
23586;SDS011;11971;51.148;4.104;2022-09-09T01:23:16;9.27;;;3.35;;
23586;SDS011;11971;51.148;4.104;2022-09-09T01:26:07;8.38;;;3.25;;
23586;SDS011;11971;51.148;4.104;2022-09-09T01:28:38;11.20;;;3.60;;
23586;SDS011;11971;51.148;4.104;2022-09-09T01:31:11;10.15;;;2.90;;
23586;SDS011;11971;51.148;4.104;2022-09-09T01:33:43;11.20;;;3.10;;
23586;SDS011;11971;51.148;4.104;2022-09-09T01:36:12;10.13;;;2.90;;
23586;SDS011;11971;51.148;4.104;2022-09-09T01:38:42;11.43;;;2.83;;
23586;SDS011;11971;51.148;4.104;2022-09-09T01:41:11;10.27;;;2.60;;
23586;SDS011;11971;51.148;4.104;2022-09-09T01:43:39;9.45;;;2.80;;
23586;SDS011;11971;51.148;4.104;2022-09-09T01:46:06;12.02;;;2.80;;
23586;SDS011;11971;51.148;4.104;2022-09-09T01:48:46;8.63;;;2.75;;
23586;SDS011;11971;51.148;4.104;2022-09-09T01:51:15;9.85;;;2.33;;
23586;SDS011;11971;51.148;4.104;2022-09-09T01:53:43;8.80;;;2.55;;
23586;SDS011;11971;51.148;4.104;2022-09-09T01:56:23;7.53;;;2.30;;
23586;SDS011;11971;51.148;4.104;2022-09-09T02:02:03;6.57;;;2.20;;
23586;SDS011;11971;51.148;4.104;2022-09-09T02:04:36;9.32;;;2.60;;
23586;SDS011;11971;51.148;4.104;2022-09-09T02:15:52;8.70;;;2.50;;
23586;SDS011;11971;51.148;4.104;2022-09-09T02:18:35;9.93;;;2.70;;
23586;SDS011;11971;51.148;4.104;2022-09-09T02:21:13;15.30;;;2.53;;
23586;SDS011;11971;51.148;4.104;2022-09-09T02:23:42;12.50;;;2.63;;
23586;SDS011;11971;51.148;4.104;2022-09-09T02:26:12;9.02;;;2.45;;
23586;SDS011;11971;51.148;4.104;2022-09-09T02:28:45;10.70;;;2.60;;
23586;SDS011;11971;51.148;4.104;2022-09-09T02:34:08;9.05;;;2.55;;
23586;SDS011;11971;51.148;4.104;2022-09-09T02:36:50;10.48;;;2.92;;
23586;SDS011;11971;51.148;4.104;2022-09-09T02:39:20;10.93;;;2.90;;
23586;SDS011;11971;51.148;4.104;2022-09-09T02:42:01;10.88;;;3.22;;
23586;SDS011;11971;51.148;4.104;2022-09-09T02:44:32;11.23;;;3.40;;
23586;SDS011;11971;51.148;4.104;2022-09-09T02:47:13;11.55;;;3.10;;
23586;SDS011;11971;51.148;4.104;2022-09-09T02:49:47;11.10;;;2.87;;
23586;SDS011;11971;51.148;4.104;2022-09-09T02:52:18;13.02;;;3.50;;
23586;SDS011;11971;51.148;4.104;2022-09-09T02:54:48;8.55;;;3.20;;
23586;SDS011;11971;51.148;4.104;2022-09-09T02:57:17;11.02;;;3.17;;
23586;SDS011;11971;51.148;4.104;2022-09-09T02:59:47;10.40;;;3.38;;
23586;SDS011;11971;51.148;4.104;2022-09-09T03:02:17;13.90;;;3.75;;
23586;SDS011;11971;51.148;4.104;2022-09-09T03:04:52;12.18;;;3.05;;
23586;SDS011;11971;51.148;4.104;2022-09-09T03:07:24;11.43;;;3.05;;
23586;SDS011;11971;51.148;4.104;2022-09-09T03:09:52;11.13;;;3.10;;
23586;SDS011;11971;51.148;4.104;2022-09-09T03:12:20;10.13;;;2.90;;
23586;SDS011;11971;51.148;4.104;2022-09-09T03:14:49;12.55;;;3.00;;
23586;SDS011;11971;51.148;4.104;2022-09-09T03:17:17;13.47;;;3.20;;
23586;SDS011;11971;51.148;4.104;2022-09-09T03:19:44;10.40;;;2.80;;
23586;SDS011;11971;51.148;4.104;2022-09-09T03:22:18;9.38;;;2.80;;
23586;SDS011;11971;51.148;4.104;2022-09-09T03:24:48;12.07;;;2.90;;
23586;SDS011;11971;51.148;4.104;2022-09-09T03:27:18;14.63;;;3.25;;
23586;SDS011;11971;51.148;4.104;2022-09-09T03:29:53;11.23;;;3.22;;
23586;SDS011;11971;51.148;4.104;2022-09-09T03:32:28;16.37;;;3.47;;
23586;SDS011;11971;51.148;4.104;2022-09-09T03:34:59;12.55;;;2.80;;
23586;SDS011;11971;51.148;4.104;2022-09-09T03:37:30;12.30;;;2.88;;
23586;SDS011;11971;51.148;4.104;2022-09-09T03:39:57;11.98;;;2.80;;
23586;SDS011;11971;51.148;4.104;2022-09-09T03:42:28;13.80;;;3.20;;
23586;SDS011;11971;51.148;4.104;2022-09-09T03:44:55;13.48;;;3.28;;
23586;SDS011;11971;51.148;4.104;2022-09-09T03:47:24;12.60;;;2.97;;
23586;SDS011;11971;51.148;4.104;2022-09-09T03:49:53;9.98;;;3.05;;
23586;SDS011;11971;51.148;4.104;2022-09-09T03:52:24;12.40;;;3.10;;
23586;SDS011;11971;51.148;4.104;2022-09-09T03:54:54;15.15;;;3.40;;
23586;SDS011;11971;51.148;4.104;2022-09-09T03:57:22;12.30;;;3.00;;
23586;SDS011;11971;51.148;4.104;2022-09-09T03:59:49;12.57;;;2.97;;
23586;SDS011;11971;51.148;4.104;2022-09-09T04:02:16;15.05;;;3.28;;
23586;SDS011;11971;51.148;4.104;2022-09-09T04:04:44;12.73;;;2.93;;
23586;SDS011;11971;51.148;4.104;2022-09-09T04:07:12;15.10;;;3.45;;
23586;SDS011;11971;51.148;4.104;2022-09-09T04:09:40;13.20;;;3.38;;
23586;SDS011;11971;51.148;4.104;2022-09-09T04:12:09;13.23;;;3.15;;
23586;SDS011;11971;51.148;4.104;2022-09-09T04:14:38;14.50;;;3.40;;
23586;SDS011;11971;51.148;4.104;2022-09-09T04:17:05;14.45;;;2.80;;
23586;SDS011;11971;51.148;4.104;2022-09-09T04:19:33;13.75;;;3.45;;
23586;SDS011;11971;51.148;4.104;2022-09-09T04:22:00;14.65;;;3.45;;
23586;SDS011;11971;51.148;4.104;2022-09-09T04:24:27;15.53;;;3.03;;
23586;SDS011;11971;51.148;4.104;2022-09-09T04:26:55;13.68;;;3.20;;
23586;SDS011;11971;51.148;4.104;2022-09-09T04:29:24;14.00;;;3.40;;
23586;SDS011;11971;51.148;4.104;2022-09-09T04:31:52;14.23;;;3.42;;
23586;SDS011;11971;51.148;4.104;2022-09-09T04:34:19;12.07;;;3.17;;
23586;SDS011;11971;51.148;4.104;2022-09-09T04:36:47;13.27;;;3.22;;
23586;SDS011;11971;51.148;4.104;2022-09-09T04:39:14;13.55;;;3.20;;
23586;SDS011;11971;51.148;4.104;2022-09-09T04:41:45;13.25;;;3.40;;
23586;SDS011;11971;51.148;4.104;2022-09-09T04:44:13;11.82;;;3.35;;
23586;SDS011;11971;51.148;4.104;2022-09-09T04:46:42;12.20;;;3.25;;
23586;SDS011;11971;51.148;4.104;2022-09-09T04:49:12;15.65;;;3.70;;
23586;SDS011;11971;51.148;4.104;2022-09-09T04:51:40;11.88;;;3.30;;
23586;SDS011;11971;51.148;4.104;2022-09-09T04:54:10;12.23;;;3.10;;
23586;SDS011;11971;51.148;4.104;2022-09-09T04:56:41;15.77;;;3.28;;
23586;SDS011;11971;51.148;4.104;2022-09-09T04:59:09;14.82;;;3.30;;
23586;SDS011;11971;51.148;4.104;2022-09-09T05:01:38;13.32;;;3.20;;
23586;SDS011;11971;51.148;4.104;2022-09-09T05:04:07;13.95;;;3.38;;
23586;SDS011;11971;51.148;4.104;2022-09-09T05:06:34;13.43;;;3.20;;
23586;SDS011;11971;51.148;4.104;2022-09-09T05:09:02;14.45;;;3.30;;
23586;SDS011;11971;51.148;4.104;2022-09-09T05:11:30;16.23;;;3.60;;
23586;SDS011;11971;51.148;4.104;2022-09-09T05:14:01;14.90;;;3.80;;
23586;SDS011;11971;51.148;4.104;2022-09-09T05:16:28;11.98;;;3.03;;
23586;SDS011;11971;51.148;4.104;2022-09-09T05:18:56;14.32;;;3.40;;
23586;SDS011;11971;51.148;4.104;2022-09-09T05:21:25;15.52;;;3.70;;
23586;SDS011;11971;51.148;4.104;2022-09-09T05:23:53;14.98;;;3.47;;
23586;SDS011;11971;51.148;4.104;2022-09-09T05:26:22;10.40;;;2.97;;
23586;SDS011;11971;51.148;4.104;2022-09-09T05:28:50;13.82;;;3.33;;
23586;SDS011;11971;51.148;4.104;2022-09-09T05:31:18;15.10;;;3.30;;
23586;SDS011;11971;51.148;4.104;2022-09-09T05:33:47;15.15;;;3.42;;
23586;SDS011;11971;51.148;4.104;2022-09-09T05:36:18;13.38;;;3.10;;
23586;SDS011;11971;51.148;4.104;2022-09-09T05:38:48;13.00;;;3.55;;
23586;SDS011;11971;51.148;4.104;2022-09-09T05:41:18;14.43;;;3.20;;
23586;SDS011;11971;51.148;4.104;2022-09-09T05:43:50;13.13;;;3.20;;
23586;SDS011;11971;51.148;4.104;2022-09-09T05:46:18;10.85;;;3.17;;
23586;SDS011;11971;51.148;4.104;2022-09-09T05:48:48;13.43;;;3.07;;
23586;SDS011;11971;51.148;4.104;2022-09-09T05:51:17;13.13;;;3.43;;
23586;SDS011;11971;51.148;4.104;2022-09-09T05:53:48;13.68;;;3.42;;
23586;SDS011;11971;51.148;4.104;2022-09-09T05:56:17;12.45;;;3.30;;
23586;SDS011;11971;51.148;4.104;2022-09-09T05:58:45;13.45;;;3.17;;
23586;SDS011;11971;51.148;4.104;2022-09-09T06:01:14;14.50;;;2.90;;
23586;SDS011;11971;51.148;4.104;2022-09-09T06:03:42;11.95;;;3.10;;
23586;SDS011;11971;51.148;4.104;2022-09-09T06:06:10;17.15;;;3.40;;
23586;SDS011;11971;51.148;4.104;2022-09-09T06:08:39;14.25;;;3.08;;
23586;SDS011;11971;51.148;4.104;2022-09-09T06:11:12;12.38;;;3.03;;
23586;SDS011;11971;51.148;4.104;2022-09-09T06:13:41;13.77;;;3.30;;
23586;SDS011;11971;51.148;4.104;2022-09-09T06:16:08;10.45;;;3.00;;
23586;SDS011;11971;51.148;4.104;2022-09-09T06:18:37;13.00;;;2.90;;
23586;SDS011;11971;51.148;4.104;2022-09-09T06:21:05;13.15;;;2.80;;
23586;SDS011;11971;51.148;4.104;2022-09-09T06:23:33;14.45;;;3.20;;
23586;SDS011;11971;51.148;4.104;2022-09-09T06:26:02;12.95;;;2.83;;
23586;SDS011;11971;51.148;4.104;2022-09-09T06:28:32;13.10;;;2.87;;
23586;SDS011;11971;51.148;4.104;2022-09-09T06:30:59;12.68;;;2.97;;
23586;SDS011;11971;51.148;4.104;2022-09-09T06:33:31;13.05;;;3.00;;
23586;SDS011;11971;51.148;4.104;2022-09-09T06:36:22;13.30;;;2.60;;
23586;SDS011;11971;51.148;4.104;2022-09-09T06:38:50;14.82;;;2.85;;
23586;SDS011;11971;51.148;4.104;2022-09-09T06:41:19;11.48;;;2.88;;
23586;SDS011;11971;51.148;4.104;2022-09-09T06:43:49;13.15;;;3.08;;
23586;SDS011;11971;51.148;4.104;2022-09-09T06:46:17;10.43;;;2.50;;
23586;SDS011;11971;51.148;4.104;2022-09-09T06:48:45;13.15;;;2.75;;
23586;SDS011;11971;51.148;4.104;2022-09-09T06:51:13;10.32;;;2.72;;
23586;SDS011;11971;51.148;4.104;2022-09-09T06:53:43;14.55;;;2.80;;
23586;SDS011;11971;51.148;4.104;2022-09-09T06:58:58;13.73;;;3.00;;
23586;SDS011;11971;51.148;4.104;2022-09-09T07:01:26;14.35;;;2.80;;
23586;SDS011;11971;51.148;4.104;2022-09-09T07:03:56;15.55;;;3.83;;
23586;SDS011;11971;51.148;4.104;2022-09-09T07:06:24;13.23;;;2.88;;
23586;SDS011;11971;51.148;4.104;2022-09-09T07:08:52;14.15;;;2.83;;
23586;SDS011;11971;51.148;4.104;2022-09-09T07:11:20;13.55;;;3.05;;
23586;SDS011;11971;51.148;4.104;2022-09-09T07:13:48;17.63;;;3.28;;
23586;SDS011;11971;51.148;4.104;2022-09-09T07:16:18;14.27;;;3.00;;
23586;SDS011;11971;51.148;4.104;2022-09-09T07:18:45;11.27;;;2.70;;
23586;SDS011;11971;51.148;4.104;2022-09-09T07:21:14;10.43;;;3.17;;
23586;SDS011;11971;51.148;4.104;2022-09-09T07:23:41;12.33;;;2.60;;
23586;SDS011;11971;51.148;4.104;2022-09-09T07:26:09;12.00;;;2.72;;
23586;SDS011;11971;51.148;4.104;2022-09-09T07:28:38;11.75;;;2.90;;
23586;SDS011;11971;51.148;4.104;2022-09-09T07:31:07;17.17;;;3.00;;
23586;SDS011;11971;51.148;4.104;2022-09-09T07:33:35;11.73;;;2.55;;
23586;SDS011;11971;51.148;4.104;2022-09-09T07:36:04;8.88;;;2.42;;
23586;SDS011;11971;51.148;4.104;2022-09-09T07:38:32;10.52;;;2.70;;
23586;SDS011;11971;51.148;4.104;2022-09-09T07:41:04;9.68;;;2.55;;
23586;SDS011;11971;51.148;4.104;2022-09-09T07:43:36;13.67;;;2.73;;
23586;SDS011;11971;51.148;4.104;2022-09-09T07:46:13;13.40;;;2.70;;
23586;SDS011;11971;51.148;4.104;2022-09-09T07:48:54;11.65;;;2.55;;
23586;SDS011;11971;51.148;4.104;2022-09-09T07:51:48;10.80;;;2.63;;
23586;SDS011;11971;51.148;4.104;2022-09-09T07:54:21;9.93;;;2.50;;
23586;SDS011;11971;51.148;4.104;2022-09-09T07:56:52;12.03;;;2.60;;
23586;SDS011;11971;51.148;4.104;2022-09-09T07:59:21;12.05;;;2.90;;
23586;SDS011;11971;51.148;4.104;2022-09-09T08:01:49;11.32;;;2.58;;
23586;SDS011;11971;51.148;4.104;2022-09-09T08:04:20;11.13;;;2.88;;
23586;SDS011;11971;51.148;4.104;2022-09-09T08:06:56;11.20;;;2.45;;
23586;SDS011;11971;51.148;4.104;2022-09-09T08:09:26;11.38;;;2.70;;
23586;SDS011;11971;51.148;4.104;2022-09-09T08:11:54;13.10;;;2.45;;
23586;SDS011;11971;51.148;4.104;2022-09-09T08:14:22;9.73;;;2.40;;
23586;SDS011;11971;51.148;4.104;2022-09-09T08:16:55;14.35;;;2.70;;
23586;SDS011;11971;51.148;4.104;2022-09-09T08:19:24;11.90;;;2.20;;
23586;SDS011;11971;51.148;4.104;2022-09-09T08:21:54;10.48;;;2.60;;
23586;SDS011;11971;51.148;4.104;2022-09-09T08:24:22;10.70;;;2.25;;
23586;SDS011;11971;51.148;4.104;2022-09-09T08:26:49;11.55;;;2.72;;
23586;SDS011;11971;51.148;4.104;2022-09-09T08:29:16;9.13;;;2.55;;
23586;SDS011;11971;51.148;4.104;2022-09-09T08:31:44;9.70;;;2.25;;
23586;SDS011;11971;51.148;4.104;2022-09-09T08:34:12;9.40;;;2.67;;
23586;SDS011;11971;51.148;4.104;2022-09-09T08:36:42;9.80;;;2.40;;
23586;SDS011;11971;51.148;4.104;2022-09-09T08:39:09;10.10;;;2.58;;
23586;SDS011;11971;51.148;4.104;2022-09-09T08:44:28;9.27;;;2.50;;
23586;SDS011;11971;51.148;4.104;2022-09-09T08:47:00;10.88;;;2.33;;
23586;SDS011;11971;51.148;4.104;2022-09-09T08:52:27;10.70;;;2.30;;
23586;SDS011;11971;51.148;4.104;2022-09-09T08:54:55;8.93;;;2.50;;
23586;SDS011;11971;51.148;4.104;2022-09-09T08:57:25;7.50;;;2.15;;
23586;SDS011;11971;51.148;4.104;2022-09-09T08:59:54;9.83;;;2.43;;
23586;SDS011;11971;51.148;4.104;2022-09-09T09:02:25;8.25;;;2.20;;
23586;SDS011;11971;51.148;4.104;2022-09-09T09:04:57;7.32;;;2.13;;
23586;SDS011;11971;51.148;4.104;2022-09-09T09:07:34;9.68;;;2.28;;
23586;SDS011;11971;51.148;4.104;2022-09-09T09:10:09;12.15;;;2.40;;
23586;SDS011;11971;51.148;4.104;2022-09-09T09:12:38;7.13;;;2.10;;
23586;SDS011;11971;51.148;4.104;2022-09-09T09:15:14;7.95;;;2.08;;
23586;SDS011;11971;51.148;4.104;2022-09-09T09:17:43;9.98;;;2.50;;
23586;SDS011;11971;51.148;4.104;2022-09-09T09:20:18;6.88;;;2.15;;
23586;SDS011;11971;51.148;4.104;2022-09-09T09:22:50;10.10;;;2.45;;
23586;SDS011;11971;51.148;4.104;2022-09-09T09:25:18;9.13;;;2.30;;
23586;SDS011;11971;51.148;4.104;2022-09-09T09:27:49;10.87;;;2.30;;
23586;SDS011;11971;51.148;4.104;2022-09-09T09:30:17;9.30;;;2.17;;
23586;SDS011;11971;51.148;4.104;2022-09-09T09:32:50;7.30;;;2.28;;
23586;SDS011;11971;51.148;4.104;2022-09-09T09:35:18;8.80;;;2.20;;
23586;SDS011;11971;51.148;4.104;2022-09-09T09:37:46;7.45;;;2.20;;
23586;SDS011;11971;51.148;4.104;2022-09-09T09:40:22;7.77;;;2.23;;
23586;SDS011;11971;51.148;4.104;2022-09-09T09:42:54;9.30;;;2.40;;
23586;SDS011;11971;51.148;4.104;2022-09-09T09:45:26;8.55;;;2.38;;
23586;SDS011;11971;51.148;4.104;2022-09-09T09:47:59;9.02;;;2.28;;
23586;SDS011;11971;51.148;4.104;2022-09-09T09:50:35;8.32;;;2.40;;
23586;SDS011;11971;51.148;4.104;2022-09-09T09:53:16;7.07;;;2.20;;
23586;SDS011;11971;51.148;4.104;2022-09-09T09:55:54;6.47;;;2.17;;
23586;SDS011;11971;51.148;4.104;2022-09-09T09:58:37;5.82;;;2.08;;
23586;SDS011;11971;51.148;4.104;2022-09-09T10:01:20;7.93;;;2.08;;
23586;SDS011;11971;51.148;4.104;2022-09-09T10:03:52;7.78;;;2.13;;
23586;SDS011;11971;51.148;4.104;2022-09-09T10:06:28;8.50;;;2.17;;
23586;SDS011;11971;51.148;4.104;2022-09-09T10:08:57;6.00;;;2.20;;
23586;SDS011;11971;51.148;4.104;2022-09-09T10:11:32;6.07;;;2.03;;
23586;SDS011;11971;51.148;4.104;2022-09-09T10:14:12;6.97;;;1.97;;
23586;SDS011;11971;51.148;4.104;2022-09-09T10:16:45;5.72;;;2.10;;
23586;SDS011;11971;51.148;4.104;2022-09-09T10:19:15;6.43;;;2.00;;
23586;SDS011;11971;51.148;4.104;2022-09-09T10:21:54;9.13;;;2.05;;
23586;SDS011;11971;51.148;4.104;2022-09-09T10:24:30;7.93;;;2.08;;
23586;SDS011;11971;51.148;4.104;2022-09-09T10:27:05;6.57;;;1.98;;
23586;SDS011;11971;51.148;4.104;2022-09-09T10:29:44;6.35;;;1.85;;
23586;SDS011;11971;51.148;4.104;2022-09-09T10:32:22;6.30;;;1.98;;
23586;SDS011;11971;51.148;4.104;2022-09-09T10:34:55;5.53;;;2.00;;
23586;SDS011;11971;51.148;4.104;2022-09-09T10:37:30;5.53;;;1.90;;
23586;SDS011;11971;51.148;4.104;2022-09-09T10:40:02;5.05;;;1.80;;
23586;SDS011;11971;51.148;4.104;2022-09-09T10:42:40;5.60;;;1.85;;
23586;SDS011;11971;51.148;4.104;2022-09-09T10:45:13;4.88;;;1.60;;
23586;SDS011;11971;51.148;4.104;2022-09-09T10:47:54;6.97;;;1.70;;
23586;SDS011;11971;51.148;4.104;2022-09-09T10:50:33;7.05;;;1.65;;
23586;SDS011;11971;51.148;4.104;2022-09-09T10:53:08;3.95;;;1.70;;
23586;SDS011;11971;51.148;4.104;2022-09-09T10:55:39;5.07;;;1.50;;
23586;SDS011;11971;51.148;4.104;2022-09-09T10:58:12;5.73;;;2.10;;
23586;SDS011;11971;51.148;4.104;2022-09-09T11:00:42;6.22;;;1.50;;
23586;SDS011;11971;51.148;4.104;2022-09-09T11:03:14;5.55;;;1.48;;
23586;SDS011;11971;51.148;4.104;2022-09-09T11:05:44;5.20;;;1.45;;
23586;SDS011;11971;51.148;4.104;2022-09-09T11:08:15;6.03;;;1.60;;
23586;SDS011;11971;51.148;4.104;2022-09-09T11:10:45;5.53;;;1.77;;
23586;SDS011;11971;51.148;4.104;2022-09-09T11:13:15;5.18;;;1.45;;
23586;SDS011;11971;51.148;4.104;2022-09-09T11:15:45;6.80;;;1.67;;
23586;SDS011;11971;51.148;4.104;2022-09-09T11:18:15;5.55;;;1.45;;
23586;SDS011;11971;51.148;4.104;2022-09-09T11:20:43;5.85;;;1.40;;
23586;SDS011;11971;51.148;4.104;2022-09-09T11:23:12;8.15;;;1.30;;
23586;SDS011;11971;51.148;4.104;2022-09-09T11:25:41;5.75;;;1.50;;
23586;SDS011;11971;51.148;4.104;2022-09-09T11:28:26;4.90;;;1.45;;
23586;SDS011;11971;51.148;4.104;2022-09-09T11:31:00;5.18;;;1.60;;
23586;SDS011;11971;51.148;4.104;2022-09-09T11:33:34;5.78;;;1.50;;
23586;SDS011;11971;51.148;4.104;2022-09-09T11:38:50;5.43;;;1.45;;
23586;SDS011;11971;51.148;4.104;2022-09-09T11:41:18;4.15;;;1.45;;
23586;SDS011;11971;51.148;4.104;2022-09-09T11:43:49;4.05;;;1.20;;
23586;SDS011;11971;51.148;4.104;2022-09-09T11:46:35;5.70;;;1.50;;
23586;SDS011;11971;51.148;4.104;2022-09-09T11:49:25;3.38;;;1.05;;
23586;SDS011;11971;51.148;4.104;2022-09-09T11:51:55;6.03;;;1.35;;
23586;SDS011;11971;51.148;4.104;2022-09-09T11:54:46;4.00;;;1.15;;
23586;SDS011;11971;51.148;4.104;2022-09-09T12:00:03;3.25;;;1.10;;
23586;SDS011;11971;51.148;4.104;2022-09-09T12:02:37;3.17;;;1.30;;
23586;SDS011;11971;51.148;4.104;2022-09-09T12:05:15;4.07;;;1.10;;
23586;SDS011;11971;51.148;4.104;2022-09-09T12:07:49;4.53;;;1.05;;
23586;SDS011;11971;51.148;4.104;2022-09-09T12:10:53;4.35;;;1.30;;
23586;SDS011;11971;51.148;4.104;2022-09-09T12:13:23;5.25;;;1.20;;
23586;SDS011;11971;51.148;4.104;2022-09-09T12:16:26;6.07;;;1.20;;
23586;SDS011;11971;51.148;4.104;2022-09-09T12:19:02;3.80;;;1.40;;
23586;SDS011;11971;51.148;4.104;2022-09-09T12:21:49;3.83;;;1.25;;
23586;SDS011;11971;51.148;4.104;2022-09-09T12:24:20;4.13;;;1.13;;
23586;SDS011;11971;51.148;4.104;2022-09-09T12:26:55;4.47;;;1.48;;
23586;SDS011;11971;51.148;4.104;2022-09-09T12:29:27;3.92;;;1.30;;
23586;SDS011;11971;51.148;4.104;2022-09-09T12:32:02;4.13;;;1.30;;
23586;SDS011;11971;51.148;4.104;2022-09-09T12:35:39;4.40;;;1.50;;
23586;SDS011;11971;51.148;4.104;2022-09-09T12:40:19;4.22;;;1.50;;
23586;SDS011;11971;51.148;4.104;2022-09-09T12:42:46;3.92;;;1.30;;
23586;SDS011;11971;51.148;4.104;2022-09-09T12:45:15;3.60;;;1.20;;
23586;SDS011;11971;51.148;4.104;2022-09-09T12:47:46;2.33;;;1.27;;
23586;SDS011;11971;51.148;4.104;2022-09-09T12:50:17;4.70;;;1.30;;
23586;SDS011;11971;51.148;4.104;2022-09-09T12:52:48;3.88;;;1.20;;
23586;SDS011;11971;51.148;4.104;2022-09-09T12:55:21;3.67;;;1.20;;
23586;SDS011;11971;51.148;4.104;2022-09-09T12:57:51;6.03;;;1.40;;
23586;SDS011;11971;51.148;4.104;2022-09-09T13:00:21;4.03;;;1.20;;
23586;SDS011;11971;51.148;4.104;2022-09-09T13:02:55;5.25;;;1.30;;
23586;SDS011;11971;51.148;4.104;2022-09-09T13:05:23;3.83;;;1.15;;
23586;SDS011;11971;51.148;4.104;2022-09-09T13:07:51;5.10;;;1.33;;
23586;SDS011;11971;51.148;4.104;2022-09-09T13:10:22;3.58;;;1.20;;
23586;SDS011;11971;51.148;4.104;2022-09-09T13:12:51;4.03;;;1.30;;
23586;SDS011;11971;51.148;4.104;2022-09-09T13:15:20;3.80;;;1.20;;
23586;SDS011;11971;51.148;4.104;2022-09-09T13:17:51;4.90;;;1.20;;
23586;SDS011;11971;51.148;4.104;2022-09-09T13:20:24;4.63;;;1.30;;
23586;SDS011;11971;51.148;4.104;2022-09-09T13:22:52;5.00;;;1.35;;
23586;SDS011;11971;51.148;4.104;2022-09-09T13:25:21;2.45;;;1.08;;
23586;SDS011;11971;51.148;4.104;2022-09-09T13:27:54;4.38;;;1.30;;
23586;SDS011;11971;51.148;4.104;2022-09-09T13:30:23;4.57;;;1.30;;
23586;SDS011;11971;51.148;4.104;2022-09-09T13:33:02;5.18;;;1.48;;
23586;SDS011;11971;51.148;4.104;2022-09-09T13:38:21;3.40;;;1.17;;
23586;SDS011;11971;51.148;4.104;2022-09-09T13:40:56;4.97;;;1.30;;
23586;SDS011;11971;51.148;4.104;2022-09-09T13:43:27;5.53;;;1.30;;
23586;SDS011;11971;51.148;4.104;2022-09-09T13:45:55;7.20;;;1.45;;
23586;SDS011;11971;51.148;4.104;2022-09-09T13:48:23;5.13;;;1.30;;
23586;SDS011;11971;51.148;4.104;2022-09-09T13:50:59;5.40;;;1.40;;
23586;SDS011;11971;51.148;4.104;2022-09-09T13:53:37;4.88;;;1.30;;
23586;SDS011;11971;51.148;4.104;2022-09-09T13:56:09;3.60;;;1.27;;
23586;SDS011;11971;51.148;4.104;2022-09-09T13:58:38;5.13;;;1.40;;
23586;SDS011;11971;51.148;4.104;2022-09-09T14:01:05;5.03;;;1.33;;
23586;SDS011;11971;51.148;4.104;2022-09-09T14:03:35;4.73;;;1.30;;
23586;SDS011;11971;51.148;4.104;2022-09-09T14:06:03;5.80;;;1.30;;
23586;SDS011;11971;51.148;4.104;2022-09-09T14:08:30;5.32;;;1.33;;
23586;SDS011;11971;51.148;4.104;2022-09-09T14:11:03;3.38;;;1.20;;
23586;SDS011;11971;51.148;4.104;2022-09-09T14:13:31;4.60;;;1.40;;
23586;SDS011;11971;51.148;4.104;2022-09-09T14:15:58;5.55;;;1.40;;
23586;SDS011;11971;51.148;4.104;2022-09-09T14:18:26;5.50;;;1.30;;
23586;SDS011;11971;51.148;4.104;2022-09-09T14:20:54;4.93;;;1.15;;
23586;SDS011;11971;51.148;4.104;2022-09-09T14:23:22;4.35;;;1.10;;
23586;SDS011;11971;51.148;4.104;2022-09-09T14:25:49;3.22;;;1.00;;
23586;SDS011;11971;51.148;4.104;2022-09-09T14:28:18;4.50;;;0.95;;
23586;SDS011;11971;51.148;4.104;2022-09-09T14:30:45;2.85;;;1.10;;
23586;SDS011;11971;51.148;4.104;2022-09-09T14:33:13;3.22;;;1.10;;
23586;SDS011;11971;51.148;4.104;2022-09-09T14:35:41;2.67;;;1.20;;
23586;SDS011;11971;51.148;4.104;2022-09-09T14:38:09;4.78;;;1.08;;
23586;SDS011;11971;51.148;4.104;2022-09-09T14:40:36;4.97;;;1.15;;
23586;SDS011;11971;51.148;4.104;2022-09-09T14:43:04;3.85;;;1.50;;
23586;SDS011;11971;51.148;4.104;2022-09-09T14:45:35;5.00;;;1.30;;
23586;SDS011;11971;51.148;4.104;2022-09-09T14:48:03;3.13;;;1.20;;
23586;SDS011;11971;51.148;4.104;2022-09-09T14:50:32;4.05;;;1.30;;
23586;SDS011;11971;51.148;4.104;2022-09-09T14:53:05;4.18;;;1.30;;
23586;SDS011;11971;51.148;4.104;2022-09-09T14:55:33;3.10;;;1.48;;
23586;SDS011;11971;51.148;4.104;2022-09-09T14:58:01;4.47;;;1.30;;
23586;SDS011;11971;51.148;4.104;2022-09-09T15:00:28;4.45;;;1.10;;
23586;SDS011;11971;51.148;4.104;2022-09-09T15:02:57;4.28;;;1.00;;
23586;SDS011;11971;51.148;4.104;2022-09-09T15:05:27;4.37;;;1.10;;
23586;SDS011;11971;51.148;4.104;2022-09-09T15:08:06;3.33;;;1.08;;
23586;SDS011;11971;51.148;4.104;2022-09-09T15:10:33;4.57;;;1.10;;
23586;SDS011;11971;51.148;4.104;2022-09-09T15:13:00;2.95;;;1.20;;
23586;SDS011;11971;51.148;4.104;2022-09-09T15:15:28;4.10;;;1.20;;
23586;SDS011;11971;51.148;4.104;2022-09-09T15:17:56;2.75;;;1.20;;
23586;SDS011;11971;51.148;4.104;2022-09-09T15:20:24;4.40;;;1.40;;
23586;SDS011;11971;51.148;4.104;2022-09-09T15:22:51;3.38;;;1.42;;
23586;SDS011;11971;51.148;4.104;2022-09-09T15:25:18;3.20;;;1.30;;
23586;SDS011;11971;51.148;4.104;2022-09-09T15:27:46;3.25;;;1.48;;
23586;SDS011;11971;51.148;4.104;2022-09-09T15:30:17;3.88;;;1.60;;
23586;SDS011;11971;51.148;4.104;2022-09-09T15:32:44;4.22;;;1.65;;
23586;SDS011;11971;51.148;4.104;2022-09-09T15:35:13;2.20;;;1.70;;
23586;SDS011;11971;51.148;4.104;2022-09-09T15:37:40;2.78;;;1.52;;
23586;SDS011;11971;51.148;4.104;2022-09-09T15:40:08;3.80;;;2.13;;